PWSweather.com
Personal Weather Stations
Station Observations
NORTHPOLE1
Tombur Subdivision, North Pole, AK 99705

Tombur SubdivisionNorth Pole, AK 99705

Lat: 64.774039, Lon: -147.284862

Elevation: 434

Station Type: Davis Vantage Pro 2

http://kl7ac.com

High Low Average
Temperature 47.9°F8.8°C 23.1°F-4.9°C 36.6°F2.6°C
Dew Point 34.5°F1.4°C 20.2°F-6.6°C 28.2°F-2.1°C
Winds 5.0 mph 8.0 kmh Calm Calm 1.0 mph ESE1.6 kmh ESE
Wind Gusts 13.0 mph20.9 kmh -- 5.0 mph8.0 kmh
Humidity 90% 49% 73%
Pressure 29.78 in1008.5 mb 29.66 in1004.4 mb -
Precipitation 0.00 in0.0 mm - -
Hour Temp Dew Point Humidity Winds Wind Gusts Pressure Precip Precip Rate Daily Precip Total
12:00 AM 29.3°F-1.5°C 24.5°F-4.2°C 82% 2.0 mph NNE3.2 kmh NNE 5.0 mph8.0 kmh 29.78 in1008.5 mb 0.00 in0.0 mm 0.00 in/hr0.0 mm/hr 0.00 in0.0 mm
12:05 AM 29.2°F-1.6°C 24.7°F-4.1°C 83% 2.0 mph NNE3.2 kmh NNE 5.0 mph8.0 kmh 29.78 in1008.5 mb 0.00 in0.0 mm 0.00 in/hr0.0 mm/hr 0.00 in0.0 mm
12:10 AM 29.2°F-1.6°C 25.0°F-3.9°C 84% 2.0 mph NNE3.2 kmh NNE 5.0 mph8.0 kmh 29.78 in1008.5 mb 0.00 in0.0 mm 0.00 in/hr0.0 mm/hr 0.00 in0.0 mm
12:15 AM 29.1°F-1.6°C 24.9°F-3.9°C 84% 2.0 mph NNE3.2 kmh NNE 5.0 mph8.0 kmh 29.78 in1008.5 mb 0.00 in0.0 mm 0.00 in/hr0.0 mm/hr 0.00 in0.0 mm
12:20 AM 29.0°F-1.7°C 24.5°F-4.2°C 83% 2.0 mph NNE3.2 kmh NNE 5.0 mph8.0 kmh 29.78 in1008.5 mb 0.00 in0.0 mm 0.00 in/hr0.0 mm/hr 0.00 in0.0 mm
12:25 AM 28.9°F-1.7°C 24.4°F-4.2°C 83% 2.0 mph NNE3.2 kmh NNE 4.0 mph6.4 kmh 29.78 in1008.5 mb 0.00 in0.0 mm 0.00 in/hr0.0 mm/hr 0.00 in0.0 mm
12:30 AM 28.9°F-1.7°C 24.4°F-4.2°C 83% 2.0 mph NNE3.2 kmh NNE 5.0 mph8.0 kmh 29.78 in1008.5 mb 0.00 in0.0 mm 0.00 in/hr0.0 mm/hr 0.00 in0.0 mm
12:35 AM 28.8°F-1.8°C 24.3°F-4.3°C 83% 2.0 mph N3.2 kmh N 5.0 mph8.0 kmh 29.78 in1008.5 mb 0.00 in0.0 mm 0.00 in/hr0.0 mm/hr 0.00 in0.0 mm
12:40 AM 28.8°F-1.8°C 24.6°F-4.1°C 84% 2.0 mph N3.2 kmh N 5.0 mph8.0 kmh 29.78 in1008.5 mb 0.00 in0.0 mm 0.00 in/hr0.0 mm/hr 0.00 in0.0 mm
12:45 AM 28.7°F-1.8°C 24.5°F-4.2°C 84% 2.0 mph N3.2 kmh N 5.0 mph8.0 kmh 29.78 in1008.5 mb 0.00 in0.0 mm 0.00 in/hr0.0 mm/hr 0.00 in0.0 mm
12:50 AM 28.7°F-1.8°C 24.2°F-4.3°C 83% 2.0 mph N3.2 kmh N 5.0 mph8.0 kmh 29.78 in1008.5 mb 0.00 in0.0 mm 0.00 in/hr0.0 mm/hr 0.00 in0.0 mm
12:55 AM 28.6°F-1.9°C 24.1°F-4.4°C 83% 2.0 mph N3.2 kmh N 4.0 mph6.4 kmh 29.78 in1008.5 mb 0.00 in0.0 mm 0.00 in/hr0.0 mm/hr 0.00 in0.0 mm
01:00 AM 28.4°F-2.0°C 23.9°F-4.5°C 83% 1.0 mph N1.6 kmh N 4.0 mph6.4 kmh 29.78 in1008.5 mb 0.00 in0.0 mm 0.00 in/hr0.0 mm/hr 0.00 in0.0 mm
01:05 AM 28.4°F-2.0°C 23.9°F-4.5°C 83% 1.0 mph NNE1.6 kmh NNE 4.0 mph6.4 kmh 29.78 in1008.5 mb 0.00 in0.0 mm 0.00 in/hr0.0 mm/hr 0.00 in0.0 mm
01:10 AM 28.3°F-2.1°C 23.8°F-4.6°C 83% Calm Calm 2.0 mph3.2 kmh 29.78 in1008.5 mb 0.00 in0.0 mm 0.00 in/hr0.0 mm/hr 0.00 in0.0 mm
01:15 AM 28.2°F-2.1°C 24.0°F-4.4°C 84% 1.0 mph NNE1.6 kmh NNE 3.0 mph4.8 kmh 29.78 in1008.5 mb 0.00 in0.0 mm 0.00 in/hr0.0 mm/hr 0.00 in0.0 mm
01:20 AM 28.1°F-2.2°C 23.9°F-4.5°C 84% 1.0 mph NNE1.6 kmh NNE 3.0 mph4.8 kmh 29.78 in1008.5 mb 0.00 in0.0 mm 0.00 in/hr0.0 mm/hr 0.00 in0.0 mm
01:25 AM 28.1°F-2.2°C 23.9°F-4.5°C 84% 1.0 mph NNE1.6 kmh NNE 3.0 mph4.8 kmh 29.78 in1008.5 mb 0.00 in0.0 mm 0.00 in/hr0.0 mm/hr 0.00 in0.0 mm
01:30 AM 28.0°F-2.2°C 23.8°F-4.6°C 84% 1.0 mph NNE1.6 kmh NNE 3.0 mph4.8 kmh 29.78 in1008.5 mb 0.00 in0.0 mm 0.00 in/hr0.0 mm/hr 0.00 in0.0 mm
01:35 AM 27.9°F-2.3°C 23.7°F-4.6°C 84% 1.0 mph NNE1.6 kmh NNE 2.0 mph3.2 kmh 29.78 in1008.5 mb 0.00 in0.0 mm 0.00 in/hr0.0 mm/hr 0.00 in0.0 mm
01:40 AM 27.8°F-2.3°C 23.6°F-4.7°C 84% 1.0 mph NNE1.6 kmh NNE 3.0 mph4.8 kmh 29.78 in1008.5 mb 0.00 in0.0 mm 0.00 in/hr0.0 mm/hr 0.00 in0.0 mm
01:45 AM 27.6°F-2.4°C 23.7°F-4.6°C 85% 1.0 mph NNE1.6 kmh NNE 3.0 mph4.8 kmh 29.78 in1008.5 mb 0.00 in0.0 mm 0.00 in/hr0.0 mm/hr 0.00 in0.0 mm
01:50 AM 27.6°F-2.4°C 24.0°F-4.4°C 86% 1.0 mph NNE1.6 kmh NNE 3.0 mph4.8 kmh 29.78 in1008.5 mb 0.00 in0.0 mm 0.00 in/hr0.0 mm/hr 0.00 in0.0 mm
01:55 AM 27.6°F-2.4°C 24.0°F-4.4°C 86% 1.0 mph NNE1.6 kmh NNE 3.0 mph4.8 kmh 29.78 in1008.5 mb 0.00 in0.0 mm 0.00 in/hr0.0 mm/hr 0.00 in0.0 mm
02:00 AM 27.4°F-2.6°C 23.5°F-4.7°C 85% 1.0 mph NNE1.6 kmh NNE 3.0 mph4.8 kmh 29.78 in1008.5 mb 0.00 in0.0 mm 0.00 in/hr0.0 mm/hr 0.00 in0.0 mm
02:05 AM 27.3°F-2.6°C 23.7°F-4.6°C 86% 1.0 mph NNE1.6 kmh NNE 3.0 mph4.8 kmh 29.78 in1008.5 mb 0.00 in0.0 mm 0.00 in/hr0.0 mm/hr 0.00 in0.0 mm
02:10 AM 27.2°F-2.7°C 23.6°F-4.7°C 86% 1.0 mph NNE1.6 kmh NNE 4.0 mph6.4 kmh 29.78 in1008.5 mb 0.00 in0.0 mm 0.00 in/hr0.0 mm/hr 0.00 in0.0 mm
02:15 AM 27.1°F-2.7°C 23.5°F-4.7°C 86% 1.0 mph NNE1.6 kmh NNE 4.0 mph6.4 kmh 29.78 in1008.5 mb 0.00 in0.0 mm 0.00 in/hr0.0 mm/hr 0.00 in0.0 mm
02:20 AM 27.0°F-2.8°C 23.4°F-4.8°C 86% 1.0 mph NNE1.6 kmh NNE 3.0 mph4.8 kmh 29.78 in1008.5 mb 0.00 in0.0 mm 0.00 in/hr0.0 mm/hr 0.00 in0.0 mm
02:25 AM 26.8°F-2.9°C 23.2°F-4.9°C 86% 1.0 mph NE1.6 kmh NE 3.0 mph4.8 kmh 29.78 in1008.5 mb 0.00 in0.0 mm 0.00 in/hr0.0 mm/hr 0.00 in0.0 mm
02:30 AM 26.7°F-2.9°C 23.1°F-4.9°C 86% 1.0 mph NE1.6 kmh NE 3.0 mph4.8 kmh 29.78 in1008.5 mb 0.00 in0.0 mm 0.00 in/hr0.0 mm/hr 0.00 in0.0 mm
02:35 AM 26.6°F-3.0°C 23.0°F-5.0°C 86% 1.0 mph NE1.6 kmh NE 3.0 mph4.8 kmh 29.78 in1008.5 mb 0.00 in0.0 mm 0.00 in/hr0.0 mm/hr 0.00 in0.0 mm
02:40 AM 26.6°F-3.0°C 23.0°F-5.0°C 86% 1.0 mph NE1.6 kmh NE 4.0 mph6.4 kmh 29.78 in1008.5 mb 0.00 in0.0 mm 0.00 in/hr0.0 mm/hr 0.00 in0.0 mm
02:45 AM 26.5°F-3.1°C 23.2°F-4.9°C 87% 2.0 mph NNE3.2 kmh NNE 5.0 mph8.0 kmh 29.78 in1008.5 mb 0.00 in0.0 mm 0.00 in/hr0.0 mm/hr 0.00 in0.0 mm
02:50 AM 26.4°F-3.1°C 22.8°F-5.1°C 86% 2.0 mph NNE3.2 kmh NNE 5.0 mph8.0 kmh 29.78 in1008.5 mb 0.00 in0.0 mm 0.00 in/hr0.0 mm/hr 0.00 in0.0 mm
02:55 AM 26.3°F-3.2°C 22.7°F-5.2°C 86% 2.0 mph NE3.2 kmh NE 5.0 mph8.0 kmh 29.78 in1008.5 mb 0.00 in0.0 mm 0.00 in/hr0.0 mm/hr 0.00 in0.0 mm
03:00 AM 26.2°F-3.2°C 22.9°F-5.1°C 87% 2.0 mph NNE3.2 kmh NNE 6.0 mph9.7 kmh 29.78 in1008.5 mb 0.00 in0.0 mm 0.00 in/hr0.0 mm/hr 0.00 in0.0 mm
03:05 AM 26.1°F-3.3°C 22.8°F-5.1°C 87% 2.0 mph NNE3.2 kmh NNE 6.0 mph9.7 kmh 29.78 in1008.5 mb 0.00 in0.0 mm 0.00 in/hr0.0 mm/hr 0.00 in0.0 mm
03:10 AM 26.1°F-3.3°C 22.8°F-5.1°C 87% 2.0 mph NNE3.2 kmh NNE 5.0 mph8.0 kmh 29.78 in1008.5 mb 0.00 in0.0 mm 0.00 in/hr0.0 mm/hr 0.00 in0.0 mm
03:15 AM 26.0°F-3.3°C 22.7°F-5.2°C 87% 2.0 mph NNE3.2 kmh NNE 5.0 mph8.0 kmh 29.78 in1008.5 mb 0.00 in0.0 mm 0.00 in/hr0.0 mm/hr 0.00 in0.0 mm
03:20 AM 25.9°F-3.4°C 22.6°F-5.2°C 87% 2.0 mph NE3.2 kmh NE 4.0 mph6.4 kmh 29.78 in1008.5 mb 0.00 in0.0 mm 0.00 in/hr0.0 mm/hr 0.00 in0.0 mm
03:25 AM 25.8°F-3.4°C 22.5°F-5.3°C 87% 2.0 mph NE3.2 kmh NE 4.0 mph6.4 kmh 29.78 in1008.5 mb 0.00 in0.0 mm 0.00 in/hr0.0 mm/hr 0.00 in0.0 mm
03:30 AM 25.6°F-3.6°C 22.3°F-5.4°C 87% 1.0 mph NE1.6 kmh NE 4.0 mph6.4 kmh 29.78 in1008.5 mb 0.00 in0.0 mm 0.00 in/hr0.0 mm/hr 0.00 in0.0 mm
03:35 AM 25.5°F-3.6°C 22.2°F-5.4°C 87% 1.0 mph NE1.6 kmh NE 4.0 mph6.4 kmh 29.78 in1008.5 mb 0.00 in0.0 mm 0.00 in/hr0.0 mm/hr 0.00 in0.0 mm
03:40 AM 25.4°F-3.7°C 22.1°F-5.5°C 87% 1.0 mph NNE1.6 kmh NNE 4.0 mph6.4 kmh 29.78 in1008.5 mb 0.00 in0.0 mm 0.00 in/hr0.0 mm/hr 0.00 in0.0 mm
03:45 AM 25.3°F-3.7°C 22.2°F-5.4°C 88% 1.0 mph NNE1.6 kmh NNE 3.0 mph4.8 kmh 29.77 in1008.1 mb 0.00 in0.0 mm 0.00 in/hr0.0 mm/hr 0.00 in0.0 mm
03:50 AM 25.3°F-3.7°C 22.2°F-5.4°C 88% 1.0 mph NE1.6 kmh NE 2.0 mph3.2 kmh 29.78 in1008.5 mb 0.00 in0.0 mm 0.00 in/hr0.0 mm/hr 0.00 in0.0 mm
03:55 AM 25.3°F-3.7°C 22.2°F-5.4°C 88% Calm Calm 2.0 mph3.2 kmh 29.78 in1008.5 mb 0.00 in0.0 mm 0.00 in/hr0.0 mm/hr 0.00 in0.0 mm
04:00 AM 25.2°F-3.8°C 21.9°F-5.6°C 87% Calm Calm 2.0 mph3.2 kmh 29.78 in1008.5 mb 0.00 in0.0 mm 0.00 in/hr0.0 mm/hr 0.00 in0.0 mm
04:05 AM 25.2°F-3.8°C 21.9°F-5.6°C 87% Calm Calm 2.0 mph3.2 kmh 29.78 in1008.5 mb 0.00 in0.0 mm 0.00 in/hr0.0 mm/hr 0.00 in0.0 mm
04:10 AM 25.1°F-3.8°C 21.8°F-5.7°C 87% Calm Calm 2.0 mph3.2 kmh 29.77 in1008.1 mb 0.00 in0.0 mm 0.00 in/hr0.0 mm/hr 0.00 in0.0 mm
04:15 AM 25.1°F-3.8°C 21.8°F-5.7°C 87% Calm Calm 1.0 mph1.6 kmh 29.77 in1008.1 mb 0.00 in0.0 mm 0.00 in/hr0.0 mm/hr 0.00 in0.0 mm
04:20 AM 24.9°F-3.9°C 21.6°F-5.8°C 87% Calm Calm 1.0 mph1.6 kmh 29.77 in1008.1 mb 0.00 in0.0 mm 0.00 in/hr0.0 mm/hr 0.00 in0.0 mm
04:25 AM 24.8°F-4.0°C 21.5°F-5.8°C 87% Calm Calm 1.0 mph1.6 kmh 29.77 in1008.1 mb 0.00 in0.0 mm 0.00 in/hr0.0 mm/hr 0.00 in0.0 mm
04:30 AM 24.6°F-4.1°C 21.3°F-5.9°C 87% Calm Calm 1.0 mph1.6 kmh 29.77 in1008.1 mb 0.00 in0.0 mm 0.00 in/hr0.0 mm/hr 0.00 in0.0 mm
04:35 AM 24.6°F-4.1°C 21.6°F-5.8°C 88% Calm Calm 1.0 mph1.6 kmh 29.77 in1008.1 mb 0.00 in0.0 mm 0.00 in/hr0.0 mm/hr 0.00 in0.0 mm
04:40 AM 24.5°F-4.2°C 21.5°F-5.8°C 88% Calm Calm 2.0 mph3.2 kmh 29.77 in1008.1 mb 0.00 in0.0 mm 0.00 in/hr0.0 mm/hr 0.00 in0.0 mm
04:45 AM 24.3°F-4.3°C 21.3°F-5.9°C 88% Calm Calm 2.0 mph3.2 kmh 29.77 in1008.1 mb 0.00 in0.0 mm 0.00 in/hr0.0 mm/hr 0.00 in0.0 mm
04:50 AM 24.2°F-4.3°C 21.2°F-6.0°C 88% Calm Calm 1.0 mph1.6 kmh 29.77 in1008.1 mb 0.00 in0.0 mm 0.00 in/hr0.0 mm/hr 0.00 in0.0 mm
04:55 AM 24.1°F-4.4°C 21.1°F-6.1°C 88% Calm Calm 1.0 mph1.6 kmh 29.77 in1008.1 mb 0.00 in0.0 mm 0.00 in/hr0.0 mm/hr 0.00 in0.0 mm
05:00 AM 24.0°F-4.4°C 21.0°F-6.1°C 88% Calm Calm 1.0 mph1.6 kmh 29.78 in1008.5 mb 0.00 in0.0 mm 0.00 in/hr0.0 mm/hr 0.00 in0.0 mm
05:05 AM 24.0°F-4.4°C 21.0°F-6.1°C 88% Calm Calm 1.0 mph1.6 kmh 29.78 in1008.5 mb 0.00 in0.0 mm 0.00 in/hr0.0 mm/hr 0.00 in0.0 mm
05:10 AM 23.9°F-4.5°C 20.9°F-6.2°C 88% Calm Calm 1.0 mph1.6 kmh 29.78 in1008.5 mb 0.00 in0.0 mm 0.00 in/hr0.0 mm/hr 0.00 in0.0 mm
05:15 AM 23.9°F-4.5°C 20.9°F-6.2°C 88% Calm Calm 1.0 mph1.6 kmh 29.78 in1008.5 mb 0.00 in0.0 mm 0.00 in/hr0.0 mm/hr 0.00 in0.0 mm
05:20 AM 23.8°F-4.6°C 20.8°F-6.2°C 88% Calm Calm 2.0 mph3.2 kmh 29.78 in1008.5 mb 0.00 in0.0 mm 0.00 in/hr0.0 mm/hr 0.00 in0.0 mm
05:25 AM 23.7°F-4.6°C 20.7°F-6.3°C 88% Calm Calm 2.0 mph3.2 kmh 29.78 in1008.5 mb 0.00 in0.0 mm 0.00 in/hr0.0 mm/hr 0.00 in0.0 mm
05:30 AM 23.5°F-4.7°C 20.5°F-6.4°C 88% Calm Calm 2.0 mph3.2 kmh 29.78 in1008.5 mb 0.00 in0.0 mm 0.00 in/hr0.0 mm/hr 0.00 in0.0 mm
05:35 AM 23.4°F-4.8°C 20.4°F-6.4°C 88% 1.0 mph ESE1.6 kmh ESE 2.0 mph3.2 kmh 29.78 in1008.5 mb 0.00 in0.0 mm 0.00 in/hr0.0 mm/hr 0.00 in0.0 mm
05:40 AM 23.4°F-4.8°C 20.4°F-6.4°C 88% Calm Calm 2.0 mph3.2 kmh 29.77 in1008.1 mb 0.00 in0.0 mm 0.00 in/hr0.0 mm/hr 0.00 in0.0 mm
05:45 AM 23.3°F-4.8°C 20.3°F-6.5°C 88% Calm Calm 1.0 mph1.6 kmh 29.78 in1008.5 mb 0.00 in0.0 mm 0.00 in/hr0.0 mm/hr 0.00 in0.0 mm
05:50 AM 23.2°F-4.9°C 20.2°F-6.6°C 88% Calm Calm 1.0 mph1.6 kmh 29.78 in1008.5 mb 0.00 in0.0 mm 0.00 in/hr0.0 mm/hr 0.00 in0.0 mm
05:55 AM 23.2°F-4.9°C 20.4°F-6.4°C 89% Calm Calm 1.0 mph1.6 kmh 29.78 in1008.5 mb 0.00 in0.0 mm 0.00 in/hr0.0 mm/hr 0.00 in0.0 mm
06:00 AM 23.1°F-4.9°C 20.3°F-6.5°C 89% Calm Calm -- 29.78 in1008.5 mb 0.00 in0.0 mm 0.00 in/hr0.0 mm/hr 0.00 in0.0 mm
06:05 AM 23.1°F-4.9°C 20.3°F-6.5°C 89% Calm Calm -- 29.78 in1008.5 mb 0.00 in0.0 mm 0.00 in/hr0.0 mm/hr 0.00 in0.0 mm
06:10 AM 23.1°F-4.9°C 20.3°F-6.5°C 89% Calm Calm -- 29.78 in1008.5 mb 0.00 in0.0 mm 0.00 in/hr0.0 mm/hr 0.00 in0.0 mm
06:15 AM 23.2°F-4.9°C 20.7°F-6.3°C 90% Calm Calm 2.0 mph3.2 kmh 29.77 in1008.1 mb 0.00 in0.0 mm 0.00 in/hr0.0 mm/hr 0.00 in0.0 mm
06:20 AM 23.2°F-4.9°C 20.7°F-6.3°C 90% Calm Calm 2.0 mph3.2 kmh 29.78 in1008.5 mb 0.00 in0.0 mm 0.00 in/hr0.0 mm/hr 0.00 in0.0 mm
06:25 AM 23.3°F-4.8°C 20.8°F-6.2°C 90% 1.0 mph E1.6 kmh E 2.0 mph3.2 kmh 29.77 in1008.1 mb 0.00 in0.0 mm 0.00 in/hr0.0 mm/hr 0.00 in0.0 mm
06:30 AM 23.4°F-4.8°C 20.9°F-6.2°C 90% Calm Calm 2.0 mph3.2 kmh 29.77 in1008.1 mb 0.00 in0.0 mm 0.00 in/hr0.0 mm/hr 0.00 in0.0 mm
06:35 AM 23.6°F-4.7°C 21.1°F-6.1°C 90% Calm Calm 2.0 mph3.2 kmh 29.77 in1008.1 mb 0.00 in0.0 mm 0.00 in/hr0.0 mm/hr 0.00 in0.0 mm
06:40 AM 23.7°F-4.6°C 21.2°F-6.0°C 90% Calm Calm 1.0 mph1.6 kmh 29.77 in1008.1 mb 0.00 in0.0 mm 0.00 in/hr0.0 mm/hr 0.00 in0.0 mm
06:45 AM 23.9°F-4.5°C 21.4°F-5.9°C 90% Calm Calm 2.0 mph3.2 kmh 29.77 in1008.1 mb 0.00 in0.0 mm 0.00 in/hr0.0 mm/hr 0.00 in0.0 mm
06:50 AM 24.1°F-4.4°C 21.6°F-5.8°C 90% Calm Calm 2.0 mph3.2 kmh 29.77 in1008.1 mb 0.00 in0.0 mm 0.00 in/hr0.0 mm/hr 0.00 in0.0 mm
06:55 AM 24.3°F-4.3°C 21.8°F-5.7°C 90% Calm Calm 2.0 mph3.2 kmh 29.77 in1008.1 mb 0.00 in0.0 mm 0.00 in/hr0.0 mm/hr 0.00 in0.0 mm
07:00 AM 24.6°F-4.1°C 22.1°F-5.5°C 90% Calm Calm 2.0 mph3.2 kmh 29.77 in1008.1 mb 0.00 in0.0 mm 0.00 in/hr0.0 mm/hr 0.00 in0.0 mm
07:05 AM 24.9°F-3.9°C 22.4°F-5.3°C 90% Calm Calm 2.0 mph3.2 kmh 29.77 in1008.1 mb 0.00 in0.0 mm 0.00 in/hr0.0 mm/hr 0.00 in0.0 mm
07:10 AM 25.2°F-3.8°C 22.7°F-5.2°C 90% Calm Calm 1.0 mph1.6 kmh 29.77 in1008.1 mb 0.00 in0.0 mm 0.00 in/hr0.0 mm/hr 0.00 in0.0 mm
07:15 AM 25.5°F-3.6°C 23.0°F-5.0°C 90% Calm Calm 1.0 mph1.6 kmh 29.77 in1008.1 mb 0.00 in0.0 mm 0.00 in/hr0.0 mm/hr 0.00 in0.0 mm
07:20 AM 25.8°F-3.4°C 23.3°F-4.8°C 90% Calm Calm 1.0 mph1.6 kmh 29.77 in1008.1 mb 0.00 in0.0 mm 0.00 in/hr0.0 mm/hr 0.00 in0.0 mm
07:25 AM 26.2°F-3.2°C 23.7°F-4.6°C 90% Calm Calm 2.0 mph3.2 kmh 29.77 in1008.1 mb 0.00 in0.0 mm 0.00 in/hr0.0 mm/hr 0.00 in0.0 mm
07:30 AM 26.6°F-3.0°C 24.1°F-4.4°C 90% Calm Calm 2.0 mph3.2 kmh 29.77 in1008.1 mb 0.00 in0.0 mm 0.00 in/hr0.0 mm/hr 0.00 in0.0 mm
07:35 AM 27.1°F-2.7°C 24.3°F-4.3°C 89% 1.0 mph ENE1.6 kmh ENE 3.0 mph4.8 kmh 29.77 in1008.1 mb 0.00 in0.0 mm 0.00 in/hr0.0 mm/hr 0.00 in0.0 mm
07:40 AM 27.5°F-2.5°C 24.7°F-4.1°C 89% 1.0 mph ENE1.6 kmh ENE 3.0 mph4.8 kmh 29.77 in1008.1 mb 0.00 in0.0 mm 0.00 in/hr0.0 mm/hr 0.00 in0.0 mm
07:45 AM 28.0°F-2.2°C 25.2°F-3.8°C 89% 1.0 mph ENE1.6 kmh ENE 3.0 mph4.8 kmh 29.77 in1008.1 mb 0.00 in0.0 mm 0.00 in/hr0.0 mm/hr 0.00 in0.0 mm
07:50 AM 28.5°F-1.9°C 25.4°F-3.7°C 88% 1.0 mph ENE1.6 kmh ENE 5.0 mph8.0 kmh 29.77 in1008.1 mb 0.00 in0.0 mm 0.00 in/hr0.0 mm/hr 0.00 in0.0 mm
07:55 AM 29.1°F-1.6°C 26.0°F-3.3°C 88% 2.0 mph NE3.2 kmh NE 6.0 mph9.7 kmh 29.76 in1007.8 mb 0.00 in0.0 mm 0.00 in/hr0.0 mm/hr 0.00 in0.0 mm
08:00 AM 29.7°F-1.3°C 26.6°F-3.0°C 88% 2.0 mph ENE3.2 kmh ENE 6.0 mph9.7 kmh 29.76 in1007.8 mb 0.00 in0.0 mm 0.00 in/hr0.0 mm/hr 0.00 in0.0 mm
08:05 AM 30.5°F-0.8°C 27.1°F-2.7°C 87% 2.0 mph NE3.2 kmh NE 6.0 mph9.7 kmh 29.76 in1007.8 mb 0.00 in0.0 mm 0.00 in/hr0.0 mm/hr 0.00 in0.0 mm
08:10 AM 31.5°F-0.3°C 27.8°F-2.3°C 86% 2.0 mph ENE3.2 kmh ENE 5.0 mph8.0 kmh 29.76 in1007.8 mb 0.00 in0.0 mm 0.00 in/hr0.0 mm/hr 0.00 in0.0 mm
08:15 AM 32.6°F0.3°C 28.0°F-2.2°C 83% 3.0 mph ENE4.8 kmh ENE 7.0 mph11.3 kmh 29.76 in1007.8 mb 0.00 in0.0 mm 0.00 in/hr0.0 mm/hr 0.00 in0.0 mm
08:20 AM 34.4°F1.3°C 28.6°F-1.9°C 79% 4.0 mph ENE6.4 kmh ENE 7.0 mph11.3 kmh 29.76 in1007.8 mb 0.00 in0.0 mm 0.00 in/hr0.0 mm/hr 0.00 in0.0 mm
08:25 AM 35.8°F2.1°C 29.0°F-1.7°C 76% 4.0 mph ENE6.4 kmh ENE 7.0 mph11.3 kmh 29.76 in1007.8 mb 0.00 in0.0 mm 0.00 in/hr0.0 mm/hr 0.00 in0.0 mm
08:30 AM 37.0°F2.8°C 28.8°F-1.8°C 72% 4.0 mph ENE6.4 kmh ENE 10.0 mph16.1 kmh 29.76 in1007.8 mb 0.00 in0.0 mm 0.00 in/hr0.0 mm/hr 0.00 in0.0 mm
08:35 AM 38.0°F3.3°C 29.1°F-1.6°C 70% 4.0 mph ENE6.4 kmh ENE 10.0 mph16.1 kmh 29.76 in1007.8 mb 0.00 in0.0 mm 0.00 in/hr0.0 mm/hr 0.00 in0.0 mm
08:40 AM 38.9°F3.8°C 28.9°F-1.7°C 67% 4.0 mph ENE6.4 kmh ENE 10.0 mph16.1 kmh 29.76 in1007.8 mb 0.00 in0.0 mm 0.00 in/hr0.0 mm/hr 0.00 in0.0 mm
08:45 AM 39.4°F4.1°C 29.3°F-1.5°C 67% 3.0 mph ENE4.8 kmh ENE 7.0 mph11.3 kmh 29.75 in1007.5 mb 0.00 in0.0 mm 0.00 in/hr0.0 mm/hr 0.00 in0.0 mm
08:50 AM 39.8°F4.3°C 29.0°F-1.7°C 65% 3.0 mph ENE4.8 kmh ENE 10.0 mph16.1 kmh 29.75 in1007.5 mb 0.00 in0.0 mm 0.00 in/hr0.0 mm/hr 0.00 in0.0 mm
08:55 AM 40.1°F4.5°C 28.9°F-1.7°C 64% 3.0 mph NE4.8 kmh NE 10.0 mph16.1 kmh 29.75 in1007.5 mb 0.00 in0.0 mm 0.00 in/hr0.0 mm/hr 0.00 in0.0 mm
09:00 AM 40.4°F4.7°C 29.2°F-1.6°C 64% 4.0 mph NE6.4 kmh NE 9.0 mph14.5 kmh 29.75 in1007.5 mb 0.00 in0.0 mm 0.00 in/hr0.0 mm/hr 0.00 in0.0 mm
09:05 AM 40.6°F4.8°C 29.4°F-1.4°C 64% 4.0 mph ENE6.4 kmh ENE 10.0 mph16.1 kmh 29.76 in1007.8 mb 0.00 in0.0 mm 0.00 in/hr0.0 mm/hr 0.00 in0.0 mm
09:10 AM 40.6°F4.8°C 29.4°F-1.4°C 64% 3.0 mph ENE4.8 kmh ENE 10.0 mph16.1 kmh 29.75 in1007.5 mb 0.00 in0.0 mm 0.00 in/hr0.0 mm/hr 0.00 in0.0 mm
09:15 AM 40.7°F4.8°C 29.5°F-1.4°C 64% 2.0 mph ENE3.2 kmh ENE 7.0 mph11.3 kmh 29.75 in1007.5 mb 0.00 in0.0 mm 0.00 in/hr0.0 mm/hr 0.00 in0.0 mm
09:20 AM 40.9°F4.9°C 28.9°F-1.7°C 62% 3.0 mph ENE4.8 kmh ENE 7.0 mph11.3 kmh 29.75 in1007.5 mb 0.00 in0.0 mm 0.00 in/hr0.0 mm/hr 0.00 in0.0 mm
09:25 AM 41.2°F5.1°C 29.2°F-1.6°C 62% 3.0 mph ENE4.8 kmh ENE 7.0 mph11.3 kmh 29.75 in1007.5 mb 0.00 in0.0 mm 0.00 in/hr0.0 mm/hr 0.00 in0.0 mm
09:30 AM 41.4°F5.2°C 29.3°F-1.5°C 62% 2.0 mph ENE3.2 kmh ENE 6.0 mph9.7 kmh 29.75 in1007.5 mb 0.00 in0.0 mm 0.00 in/hr0.0 mm/hr 0.00 in0.0 mm
09:35 AM 41.6°F5.3°C 29.5°F-1.4°C 62% 2.0 mph NE3.2 kmh NE 7.0 mph11.3 kmh 29.75 in1007.5 mb 0.00 in0.0 mm 0.00 in/hr0.0 mm/hr 0.00 in0.0 mm
09:40 AM 41.7°F5.4°C 29.2°F-1.6°C 61% 3.0 mph NE4.8 kmh NE 10.0 mph16.1 kmh 29.75 in1007.5 mb 0.00 in0.0 mm 0.00 in/hr0.0 mm/hr 0.00 in0.0 mm
09:45 AM 41.9°F5.5°C 29.4°F-1.4°C 61% 4.0 mph NE6.4 kmh NE 10.0 mph16.1 kmh 29.75 in1007.5 mb 0.00 in0.0 mm 0.00 in/hr0.0 mm/hr 0.00 in0.0 mm
09:50 AM 42.4°F5.8°C 29.5°F-1.4°C 60% 4.0 mph NE6.4 kmh NE 10.0 mph16.1 kmh 29.75 in1007.5 mb 0.00 in0.0 mm 0.00 in/hr0.0 mm/hr 0.00 in0.0 mm
09:55 AM 42.8°F6.0°C 29.9°F-1.2°C 60% 3.0 mph NE4.8 kmh NE 9.0 mph14.5 kmh 29.75 in1007.5 mb 0.00 in0.0 mm 0.00 in/hr0.0 mm/hr 0.00 in0.0 mm
10:00 AM 43.3°F6.3°C 29.9°F-1.2°C 59% 4.0 mph ENE6.4 kmh ENE 9.0 mph14.5 kmh 29.74 in1007.1 mb 0.00 in0.0 mm 0.00 in/hr0.0 mm/hr 0.00 in0.0 mm
10:05 AM 43.9°F6.6°C 29.5°F-1.4°C 57% 5.0 mph ENE8.0 kmh ENE 9.0 mph14.5 kmh 29.74 in1007.1 mb 0.00 in0.0 mm 0.00 in/hr0.0 mm/hr 0.00 in0.0 mm
10:10 AM 44.5°F6.9°C 30.2°F-1.0°C 57% 4.0 mph ENE6.4 kmh ENE 10.0 mph16.1 kmh 29.74 in1007.1 mb 0.00 in0.0 mm 0.00 in/hr0.0 mm/hr 0.00 in0.0 mm
10:15 AM 44.9°F7.2°C 30.1°F-1.1°C 56% 4.0 mph ENE6.4 kmh ENE 10.0 mph16.1 kmh 29.74 in1007.1 mb 0.00 in0.0 mm 0.00 in/hr0.0 mm/hr 0.00 in0.0 mm
10:20 AM 45.2°F7.3°C 30.0°F-1.1°C 55% 3.0 mph NE4.8 kmh NE 7.0 mph11.3 kmh 29.74 in1007.1 mb 0.00 in0.0 mm 0.00 in/hr0.0 mm/hr 0.00 in0.0 mm
10:25 AM 45.4°F7.4°C 30.6°F-0.8°C 56% 3.0 mph NE4.8 kmh NE 7.0 mph11.3 kmh 29.74 in1007.1 mb 0.00 in0.0 mm 0.00 in/hr0.0 mm/hr 0.00 in0.0 mm
10:30 AM 45.3°F7.4°C 30.1°F-1.1°C 55% 3.0 mph ENE4.8 kmh ENE 9.0 mph14.5 kmh 29.73 in1006.8 mb 0.00 in0.0 mm 0.00 in/hr0.0 mm/hr 0.00 in0.0 mm
10:35 AM 45.3°F7.4°C 30.5°F-0.8°C 56% 3.0 mph E4.8 kmh E 9.0 mph14.5 kmh 29.73 in1006.8 mb 0.00 in0.0 mm 0.00 in/hr0.0 mm/hr 0.00 in0.0 mm
10:40 AM 45.4°F7.4°C 30.2°F-1.0°C 55% 3.0 mph ENE4.8 kmh ENE 7.0 mph11.3 kmh 29.73 in1006.8 mb 0.00 in0.0 mm 0.00 in/hr0.0 mm/hr 0.00 in0.0 mm
10:45 AM 45.7°F7.6°C 30.0°F-1.1°C 54% 4.0 mph ENE6.4 kmh ENE 7.0 mph11.3 kmh 29.73 in1006.8 mb 0.00 in0.0 mm 0.00 in/hr0.0 mm/hr 0.00 in0.0 mm
10:50 AM 45.9°F7.7°C 30.6°F-0.8°C 55% 4.0 mph NE6.4 kmh NE 7.0 mph11.3 kmh 29.73 in1006.8 mb 0.00 in0.0 mm 0.00 in/hr0.0 mm/hr 0.00 in0.0 mm
10:55 AM 45.9°F7.7°C 30.6°F-0.8°C 55% 3.0 mph ENE4.8 kmh ENE 6.0 mph9.7 kmh 29.73 in1006.8 mb 0.00 in0.0 mm 0.00 in/hr0.0 mm/hr 0.00 in0.0 mm
11:00 AM 45.9°F7.7°C 30.2°F-1.0°C 54% 2.0 mph NE3.2 kmh NE 6.0 mph9.7 kmh 29.73 in1006.8 mb 0.00 in0.0 mm 0.00 in/hr0.0 mm/hr 0.00 in0.0 mm
11:05 AM 46.1°F7.8°C 30.4°F-0.9°C 54% 2.0 mph NE3.2 kmh NE 6.0 mph9.7 kmh 29.72 in1006.4 mb 0.00 in0.0 mm 0.00 in/hr0.0 mm/hr 0.00 in0.0 mm
11:10 AM 46.3°F7.9°C 29.1°F-1.6°C 51% 3.0 mph ENE4.8 kmh ENE 13.0 mph20.9 kmh 29.72 in1006.4 mb 0.00 in0.0 mm 0.00 in/hr0.0 mm/hr 0.00 in0.0 mm
11:15 AM 46.4°F8.0°C 30.2°F-1.0°C 53% 4.0 mph E6.4 kmh E 13.0 mph20.9 kmh 29.72 in1006.4 mb 0.00 in0.0 mm 0.00 in/hr0.0 mm/hr 0.00 in0.0 mm
11:20 AM 46.4°F8.0°C 29.7°F-1.3°C 52% 4.0 mph ENE6.4 kmh ENE 10.0 mph16.1 kmh 29.72 in1006.4 mb 0.00 in0.0 mm 0.00 in/hr0.0 mm/hr 0.00 in0.0 mm
11:25 AM 46.5°F8.1°C 30.3°F-0.9°C 53% 3.0 mph NE4.8 kmh NE 7.0 mph11.3 kmh 29.71 in1006.1 mb 0.00 in0.0 mm 0.00 in/hr0.0 mm/hr 0.00 in0.0 mm
11:30 AM 46.6°F8.1°C 30.8°F-0.7°C 54% 2.0 mph NE3.2 kmh NE 6.0 mph9.7 kmh 29.71 in1006.1 mb 0.00 in0.0 mm 0.00 in/hr0.0 mm/hr 0.00 in0.0 mm
11:35 AM 46.7°F8.2°C 30.5°F-0.8°C 53% 2.0 mph ENE3.2 kmh ENE 6.0 mph9.7 kmh 29.71 in1006.1 mb 0.00 in0.0 mm 0.00 in/hr0.0 mm/hr 0.00 in0.0 mm
11:40 AM 46.9°F8.3°C 30.2°F-1.0°C 52% 2.0 mph ENE3.2 kmh ENE 6.0 mph9.7 kmh 29.71 in1006.1 mb 0.00 in0.0 mm 0.00 in/hr0.0 mm/hr 0.00 in0.0 mm
11:45 AM 47.0°F8.3°C 29.8°F-1.2°C 51% 3.0 mph ENE4.8 kmh ENE 6.0 mph9.7 kmh 29.71 in1006.1 mb 0.00 in0.0 mm 0.00 in/hr0.0 mm/hr 0.00 in0.0 mm
11:50 AM 47.2°F8.4°C 30.5°F-0.8°C 52% 3.0 mph ENE4.8 kmh ENE 5.0 mph8.0 kmh 29.71 in1006.1 mb 0.00 in0.0 mm 0.00 in/hr0.0 mm/hr 0.00 in0.0 mm
11:55 AM 47.3°F8.5°C 30.1°F-1.1°C 51% 2.0 mph ENE3.2 kmh ENE 7.0 mph11.3 kmh 29.71 in1006.1 mb 0.00 in0.0 mm 0.00 in/hr0.0 mm/hr 0.00 in0.0 mm
12:00 PM 47.4°F8.6°C 30.6°F-0.8°C 52% 3.0 mph ENE4.8 kmh ENE 7.0 mph11.3 kmh 29.71 in1006.1 mb 0.00 in0.0 mm 0.00 in/hr0.0 mm/hr 0.00 in0.0 mm
12:05 PM 47.4°F8.6°C 30.6°F-0.8°C 52% 3.0 mph E4.8 kmh E 9.0 mph14.5 kmh 29.71 in1006.1 mb 0.00 in0.0 mm 0.00 in/hr0.0 mm/hr 0.00 in0.0 mm
12:10 PM 47.6°F8.7°C 30.3°F-0.9°C 51% 3.0 mph ENE4.8 kmh ENE 9.0 mph14.5 kmh 29.71 in1006.1 mb 0.00 in0.0 mm 0.00 in/hr0.0 mm/hr 0.00 in0.0 mm
12:15 PM 47.7°F8.7°C 30.0°F-1.1°C 50% 4.0 mph NE6.4 kmh NE 8.0 mph12.9 kmh 29.71 in1006.1 mb 0.00 in0.0 mm 0.00 in/hr0.0 mm/hr 0.00 in0.0 mm
12:20 PM 47.9°F8.8°C 30.1°F-1.1°C 50% 3.0 mph NE4.8 kmh NE 8.0 mph12.9 kmh 29.71 in1006.1 mb 0.00 in0.0 mm 0.00 in/hr0.0 mm/hr 0.00 in0.0 mm
12:25 PM 47.9°F8.8°C 30.1°F-1.1°C 50% 3.0 mph ENE4.8 kmh ENE 11.0 mph17.7 kmh 29.70 in1005.8 mb 0.00 in0.0 mm 0.00 in/hr0.0 mm/hr 0.00 in0.0 mm
12:30 PM 47.9°F8.8°C 30.6°F-0.8°C 51% 3.0 mph E4.8 kmh E 11.0 mph17.7 kmh 29.70 in1005.8 mb 0.00 in0.0 mm 0.00 in/hr0.0 mm/hr 0.00 in0.0 mm
12:35 PM 47.9°F8.8°C 29.6°F-1.3°C 49% 4.0 mph ENE6.4 kmh ENE 8.0 mph12.9 kmh 29.70 in1005.8 mb 0.00 in0.0 mm 0.00 in/hr0.0 mm/hr 0.00 in0.0 mm
12:40 PM 47.9°F8.8°C 30.6°F-0.8°C 51% 4.0 mph ENE6.4 kmh ENE 8.0 mph12.9 kmh 29.70 in1005.8 mb 0.00 in0.0 mm 0.00 in/hr0.0 mm/hr 0.00 in0.0 mm
12:45 PM 47.7°F8.7°C 30.0°F-1.1°C 50% 3.0 mph E4.8 kmh E 11.0 mph17.7 kmh 29.70 in1005.8 mb 0.00 in0.0 mm 0.00 in/hr0.0 mm/hr 0.00 in0.0 mm
12:50 PM 47.5°F8.6°C 30.3°F-0.9°C 51% 4.0 mph E6.4 kmh E 11.0 mph17.7 kmh 29.70 in1005.8 mb 0.00 in0.0 mm 0.00 in/hr0.0 mm/hr 0.00 in0.0 mm
12:55 PM 47.4°F8.6°C 30.2°F-1.0°C 51% 4.0 mph E6.4 kmh E 9.0 mph14.5 kmh 29.70 in1005.8 mb 0.00 in0.0 mm 0.00 in/hr0.0 mm/hr 0.00 in0.0 mm
01:00 PM 47.3°F8.5°C 30.1°F-1.1°C 51% 4.0 mph E6.4 kmh E 11.0 mph17.7 kmh 29.70 in1005.8 mb 0.00 in0.0 mm 0.00 in/hr0.0 mm/hr 0.00 in0.0 mm
01:05 PM 47.4°F8.6°C 30.2°F-1.0°C 51% 5.0 mph E8.0 kmh E 11.0 mph17.7 kmh 29.70 in1005.8 mb 0.00 in0.0 mm 0.00 in/hr0.0 mm/hr 0.00 in0.0 mm
01:10 PM 47.5°F8.6°C 30.3°F-0.9°C 51% 4.0 mph E6.4 kmh E 10.0 mph16.1 kmh 29.70 in1005.8 mb 0.00 in0.0 mm 0.00 in/hr0.0 mm/hr 0.00 in0.0 mm
01:15 PM 47.4°F8.6°C 30.6°F-0.8°C 52% 3.0 mph ENE4.8 kmh ENE 10.0 mph16.1 kmh 29.70 in1005.8 mb 0.00 in0.0 mm 0.00 in/hr0.0 mm/hr 0.00 in0.0 mm
01:20 PM 47.1°F8.4°C 30.4°F-0.9°C 52% 4.0 mph E6.4 kmh E 7.0 mph11.3 kmh 29.70 in1005.8 mb 0.00 in0.0 mm 0.00 in/hr0.0 mm/hr 0.00 in0.0 mm
01:25 PM 46.9°F8.3°C 30.6°F-0.8°C 53% 3.0 mph E4.8 kmh E 8.0 mph12.9 kmh 29.70 in1005.8 mb 0.00 in0.0 mm 0.00 in/hr0.0 mm/hr 0.00 in0.0 mm
01:30 PM 46.9°F8.3°C 30.2°F-1.0°C 52% 4.0 mph E6.4 kmh E 11.0 mph17.7 kmh 29.70 in1005.8 mb 0.00 in0.0 mm 0.00 in/hr0.0 mm/hr 0.00 in0.0 mm
01:35 PM 47.0°F8.3°C 31.2°F-0.4°C 54% 4.0 mph E6.4 kmh E 11.0 mph17.7 kmh 29.70 in1005.8 mb 0.00 in0.0 mm 0.00 in/hr0.0 mm/hr 0.00 in0.0 mm
01:40 PM 46.7°F8.2°C 30.9°F-0.6°C 54% 3.0 mph ESE4.8 kmh ESE 12.0 mph19.3 kmh 29.70 in1005.8 mb 0.00 in0.0 mm 0.00 in/hr0.0 mm/hr 0.00 in0.0 mm
01:45 PM 46.7°F8.2°C 31.4°F-0.3°C 55% 2.0 mph ESE3.2 kmh ESE 12.0 mph19.3 kmh 29.70 in1005.8 mb 0.00 in0.0 mm 0.00 in/hr0.0 mm/hr 0.00 in0.0 mm
01:50 PM 46.9°F8.3°C 31.1°F-0.5°C 54% 2.0 mph E3.2 kmh E 6.0 mph9.7 kmh 29.70 in1005.8 mb 0.00 in0.0 mm 0.00 in/hr0.0 mm/hr 0.00 in0.0 mm
01:55 PM 46.9°F8.3°C 31.1°F-0.5°C 54% 2.0 mph E3.2 kmh E 4.0 mph6.4 kmh 29.70 in1005.8 mb 0.00 in0.0 mm 0.00 in/hr0.0 mm/hr 0.00 in0.0 mm
02:00 PM 46.9°F8.3°C 30.6°F-0.8°C 53% 2.0 mph E3.2 kmh E 4.0 mph6.4 kmh 29.70 in1005.8 mb 0.00 in0.0 mm 0.00 in/hr0.0 mm/hr 0.00 in0.0 mm
02:05 PM 47.0°F8.3°C 31.2°F-0.4°C 54% 1.0 mph E1.6 kmh E 4.0 mph6.4 kmh 29.70 in1005.8 mb 0.00 in0.0 mm 0.00 in/hr0.0 mm/hr 0.00 in0.0 mm
02:10 PM 47.2°F8.4°C 31.4°F-0.3°C 54% 1.0 mph ESE1.6 kmh ESE 4.0 mph6.4 kmh 29.70 in1005.8 mb 0.00 in0.0 mm 0.00 in/hr0.0 mm/hr 0.00 in0.0 mm
02:15 PM 47.2°F8.4°C 31.4°F-0.3°C 54% 1.0 mph ESE1.6 kmh ESE 4.0 mph6.4 kmh 29.70 in1005.8 mb 0.00 in0.0 mm 0.00 in/hr0.0 mm/hr 0.00 in0.0 mm
02:20 PM 47.1°F8.4°C 31.3°F-0.4°C 54% 1.0 mph ESE1.6 kmh ESE 5.0 mph8.0 kmh 29.70 in1005.8 mb 0.00 in0.0 mm 0.00 in/hr0.0 mm/hr 0.00 in0.0 mm
02:25 PM 46.9°F8.3°C 31.6°F-0.2°C 55% 1.0 mph ESE1.6 kmh ESE 7.0 mph11.3 kmh 29.70 in1005.8 mb 0.00 in0.0 mm 0.00 in/hr0.0 mm/hr 0.00 in0.0 mm
02:30 PM 46.5°F8.1°C 32.1°F0.1°C 57% 2.0 mph ESE3.2 kmh ESE 9.0 mph14.5 kmh 29.70 in1005.8 mb 0.00 in0.0 mm 0.00 in/hr0.0 mm/hr 0.00 in0.0 mm
02:35 PM 46.3°F7.9°C 31.9°F-0.1°C 57% 2.0 mph E3.2 kmh E 9.0 mph14.5 kmh 29.70 in1005.8 mb 0.00 in0.0 mm 0.00 in/hr0.0 mm/hr 0.00 in0.0 mm
02:40 PM 46.0°F7.8°C 32.0°F0.0°C 58% 2.0 mph ESE3.2 kmh ESE 7.0 mph11.3 kmh 29.70 in1005.8 mb 0.00 in0.0 mm 0.00 in/hr0.0 mm/hr 0.00 in0.0 mm
02:45 PM 45.8°F7.7°C 31.9°F-0.1°C 58% 2.0 mph E3.2 kmh E 7.0 mph11.3 kmh 29.70 in1005.8 mb 0.00 in0.0 mm 0.00 in/hr0.0 mm/hr 0.00 in0.0 mm
02:50 PM 45.9°F7.7°C 32.4°F0.2°C 59% 2.0 mph E3.2 kmh E 7.0 mph11.3 kmh 29.70 in1005.8 mb 0.00 in0.0 mm 0.00 in/hr0.0 mm/hr 0.00 in0.0 mm
02:55 PM 46.1°F7.8°C 32.1°F0.1°C 58% 1.0 mph E1.6 kmh E 6.0 mph9.7 kmh 29.70 in1005.8 mb 0.00 in0.0 mm 0.00 in/hr0.0 mm/hr 0.00 in0.0 mm
03:00 PM 46.4°F8.0°C 32.8°F0.4°C 59% Calm Calm 3.0 mph4.8 kmh 29.70 in1005.8 mb 0.00 in0.0 mm 0.00 in/hr0.0 mm/hr 0.00 in0.0 mm
03:05 PM 46.6°F8.1°C 32.6°F0.3°C 58% Calm Calm 4.0 mph6.4 kmh 29.70 in1005.8 mb 0.00 in0.0 mm 0.00 in/hr0.0 mm/hr 0.00 in0.0 mm
03:10 PM 46.6°F8.1°C 32.2°F0.1°C 57% 1.0 mph ESE1.6 kmh ESE 6.0 mph9.7 kmh 29.70 in1005.8 mb 0.00 in0.0 mm 0.00 in/hr0.0 mm/hr 0.00 in0.0 mm
03:15 PM 46.7°F8.2°C 32.3°F0.2°C 57% 1.0 mph ESE1.6 kmh ESE 6.0 mph9.7 kmh 29.70 in1005.8 mb 0.00 in0.0 mm 0.00 in/hr0.0 mm/hr 0.00 in0.0 mm
03:20 PM 47.0°F8.3°C 32.5°F0.3°C 57% 2.0 mph SE3.2 kmh SE 9.0 mph14.5 kmh 29.70 in1005.8 mb 0.00 in0.0 mm 0.00 in/hr0.0 mm/hr 0.00 in0.0 mm
03:25 PM 47.3°F8.5°C 33.3°F0.7°C 58% 2.0 mph SE3.2 kmh SE 9.0 mph14.5 kmh 29.70 in1005.8 mb 0.00 in0.0 mm 0.00 in/hr0.0 mm/hr 0.00 in0.0 mm
03:30 PM 47.2°F8.4°C 33.2°F0.7°C 58% 1.0 mph SE1.6 kmh SE 8.0 mph12.9 kmh 29.70 in1005.8 mb 0.00 in0.0 mm 0.00 in/hr0.0 mm/hr 0.00 in0.0 mm
03:35 PM 47.0°F8.3°C 33.4°F0.8°C 59% 1.0 mph SE1.6 kmh SE 8.0 mph12.9 kmh 29.70 in1005.8 mb 0.00 in0.0 mm 0.00 in/hr0.0 mm/hr 0.00 in0.0 mm
03:40 PM 46.3°F7.9°C 32.7°F0.4°C 59% 2.0 mph E3.2 kmh E 6.0 mph9.7 kmh 29.70 in1005.8 mb 0.00 in0.0 mm 0.00 in/hr0.0 mm/hr 0.00 in0.0 mm
03:45 PM 46.2°F7.9°C 33.1°F0.6°C 60% 1.0 mph E1.6 kmh E 5.0 mph8.0 kmh 29.70 in1005.8 mb 0.00 in0.0 mm 0.00 in/hr0.0 mm/hr 0.00 in0.0 mm
03:50 PM 46.3°F7.9°C 32.7°F0.4°C 59% 1.0 mph SE1.6 kmh SE 5.0 mph8.0 kmh 29.70 in1005.8 mb 0.00 in0.0 mm 0.00 in/hr0.0 mm/hr 0.00 in0.0 mm
03:55 PM 46.4°F8.0°C 33.3°F0.7°C 60% 1.0 mph SE1.6 kmh SE 5.0 mph8.0 kmh 29.70 in1005.8 mb 0.00 in0.0 mm 0.00 in/hr0.0 mm/hr 0.00 in0.0 mm
04:00 PM 46.7°F8.2°C 33.5°F0.8°C 60% 1.0 mph SE1.6 kmh SE 5.0 mph8.0 kmh 29.70 in1005.8 mb 0.00 in0.0 mm 0.00 in/hr0.0 mm/hr 0.00 in0.0 mm
04:05 PM 47.0°F8.3°C 33.8°F1.0°C 60% 1.0 mph SSE1.6 kmh SSE 5.0 mph8.0 kmh 29.70 in1005.8 mb 0.00 in0.0 mm 0.00 in/hr0.0 mm/hr 0.00 in0.0 mm
04:10 PM 46.9°F8.3°C 33.7°F0.9°C 60% 1.0 mph SE1.6 kmh SE 7.0 mph11.3 kmh 29.70 in1005.8 mb 0.00 in0.0 mm 0.00 in/hr0.0 mm/hr 0.00 in0.0 mm
04:15 PM 46.3°F7.9°C 34.0°F1.1°C 62% 2.0 mph ESE3.2 kmh ESE 7.0 mph11.3 kmh 29.70 in1005.8 mb 0.00 in0.0 mm 0.00 in/hr0.0 mm/hr 0.00 in0.0 mm
04:20 PM 45.6°F7.6°C 34.1°F1.2°C 64% 2.0 mph E3.2 kmh E 7.0 mph11.3 kmh 29.70 in1005.8 mb 0.00 in0.0 mm 0.00 in/hr0.0 mm/hr 0.00 in0.0 mm
04:25 PM 45.4°F7.4°C 34.3°F1.3°C 65% 1.0 mph E1.6 kmh E 5.0 mph8.0 kmh 29.70 in1005.8 mb 0.00 in0.0 mm 0.00 in/hr0.0 mm/hr 0.00 in0.0 mm
04:30 PM 45.6°F7.6°C 34.5°F1.4°C 65% Calm Calm 3.0 mph4.8 kmh 29.70 in1005.8 mb 0.00 in0.0 mm 0.00 in/hr0.0 mm/hr 0.00 in0.0 mm
04:35 PM 45.8°F7.7°C 34.3°F1.3°C 64% Calm Calm 2.0 mph3.2 kmh 29.70 in1005.8 mb 0.00 in0.0 mm 0.00 in/hr0.0 mm/hr 0.00 in0.0 mm
04:40 PM 45.8°F7.7°C 34.3°F1.3°C 64% 1.0 mph E1.6 kmh E 3.0 mph4.8 kmh 29.70 in1005.8 mb 0.00 in0.0 mm 0.00 in/hr0.0 mm/hr 0.00 in0.0 mm
04:45 PM 45.6°F7.6°C 34.1°F1.2°C 64% 1.0 mph E1.6 kmh E 3.0 mph4.8 kmh 29.70 in1005.8 mb 0.00 in0.0 mm 0.00 in/hr0.0 mm/hr 0.00 in0.0 mm
04:50 PM 45.6°F7.6°C 34.1°F1.2°C 64% 1.0 mph SE1.6 kmh SE 4.0 mph6.4 kmh 29.70 in1005.8 mb 0.00 in0.0 mm 0.00 in/hr0.0 mm/hr 0.00 in0.0 mm
04:55 PM 45.6°F7.6°C 34.1°F1.2°C 64% 1.0 mph SE1.6 kmh SE 4.0 mph6.4 kmh 29.70 in1005.8 mb 0.00 in0.0 mm 0.00 in/hr0.0 mm/hr 0.00 in0.0 mm
05:00 PM 45.5°F7.5°C 34.0°F1.1°C 64% 1.0 mph SE1.6 kmh SE 4.0 mph6.4 kmh 29.70 in1005.8 mb 0.00 in0.0 mm 0.00 in/hr0.0 mm/hr 0.00 in0.0 mm
05:05 PM 45.4°F7.4°C 34.3°F1.3°C 65% 1.0 mph SE1.6 kmh SE 4.0 mph6.4 kmh 29.70 in1005.8 mb 0.00 in0.0 mm 0.00 in/hr0.0 mm/hr 0.00 in0.0 mm
05:10 PM 45.3°F7.4°C 34.2°F1.2°C 65% 1.0 mph SE1.6 kmh SE 4.0 mph6.4 kmh 29.70 in1005.8 mb 0.00 in0.0 mm 0.00 in/hr0.0 mm/hr 0.00 in0.0 mm
05:15 PM 45.3°F7.4°C 34.2°F1.2°C 65% Calm Calm 2.0 mph3.2 kmh 29.70 in1005.8 mb 0.00 in0.0 mm 0.00 in/hr0.0 mm/hr 0.00 in0.0 mm
05:20 PM 45.2°F7.3°C 34.1°F1.2°C 65% Calm Calm 2.0 mph3.2 kmh 29.70 in1005.8 mb 0.00 in0.0 mm 0.00 in/hr0.0 mm/hr 0.00 in0.0 mm
05:25 PM 45.2°F7.3°C 34.1°F1.2°C 65% Calm Calm 2.0 mph3.2 kmh 29.70 in1005.8 mb 0.00 in0.0 mm 0.00 in/hr0.0 mm/hr 0.00 in0.0 mm
05:30 PM 45.2°F7.3°C 34.1°F1.2°C 65% Calm Calm 3.0 mph4.8 kmh 29.70 in1005.8 mb 0.00 in0.0 mm 0.00 in/hr0.0 mm/hr 0.00 in0.0 mm
05:35 PM 45.0°F7.2°C 34.3°F1.3°C 66% 1.0 mph ENE1.6 kmh ENE 3.0 mph4.8 kmh 29.69 in1005.4 mb 0.00 in0.0 mm 0.00 in/hr0.0 mm/hr 0.00 in0.0 mm
05:40 PM 44.8°F7.1°C 34.1°F1.2°C 66% 1.0 mph NE1.6 kmh NE 3.0 mph4.8 kmh 29.69 in1005.4 mb 0.00 in0.0 mm 0.00 in/hr0.0 mm/hr 0.00 in0.0 mm
05:45 PM 44.6°F7.0°C 34.3°F1.3°C 67% 1.0 mph NE1.6 kmh NE 4.0 mph6.4 kmh 29.69 in1005.4 mb 0.00 in0.0 mm 0.00 in/hr0.0 mm/hr 0.00 in0.0 mm
05:50 PM 44.4°F6.9°C 34.1°F1.2°C 67% 1.0 mph NE1.6 kmh NE 4.0 mph6.4 kmh 29.69 in1005.4 mb 0.00 in0.0 mm 0.00 in/hr0.0 mm/hr 0.00 in0.0 mm
05:55 PM 44.3°F6.8°C 34.0°F1.1°C 67% Calm Calm 2.0 mph3.2 kmh 29.69 in1005.4 mb 0.00 in0.0 mm 0.00 in/hr0.0 mm/hr 0.00 in0.0 mm
06:00 PM 44.2°F6.8°C 33.9°F1.1°C 67% Calm Calm 2.0 mph3.2 kmh 29.69 in1005.4 mb 0.00 in0.0 mm 0.00 in/hr0.0 mm/hr 0.00 in0.0 mm
06:05 PM 44.3°F6.8°C 34.4°F1.3°C 68% Calm Calm 1.0 mph1.6 kmh 29.69 in1005.4 mb 0.00 in0.0 mm 0.00 in/hr0.0 mm/hr 0.00 in0.0 mm
06:10 PM 44.2°F6.8°C 33.9°F1.1°C 67% Calm Calm 4.0 mph6.4 kmh 29.69 in1005.4 mb 0.00 in0.0 mm 0.00 in/hr0.0 mm/hr 0.00 in0.0 mm
06:15 PM 44.1°F6.7°C 33.8°F1.0°C 67% 1.0 mph N1.6 kmh N 4.0 mph6.4 kmh 29.68 in1005.1 mb 0.00 in0.0 mm 0.00 in/hr0.0 mm/hr 0.00 in0.0 mm
06:20 PM 44.0°F6.7°C 34.1°F1.2°C 68% 1.0 mph N1.6 kmh N 5.0 mph8.0 kmh 29.68 in1005.1 mb 0.00 in0.0 mm 0.00 in/hr0.0 mm/hr 0.00 in0.0 mm
06:25 PM 43.8°F6.6°C 33.9°F1.1°C 68% 2.0 mph N3.2 kmh N 5.0 mph8.0 kmh 29.68 in1005.1 mb 0.00 in0.0 mm 0.00 in/hr0.0 mm/hr 0.00 in0.0 mm
06:30 PM 43.7°F6.5°C 34.2°F1.2°C 69% 2.0 mph N3.2 kmh N 5.0 mph8.0 kmh 29.68 in1005.1 mb 0.00 in0.0 mm 0.00 in/hr0.0 mm/hr 0.00 in0.0 mm
06:35 PM 43.5°F6.4°C 34.0°F1.1°C 69% 1.0 mph N1.6 kmh N 5.0 mph8.0 kmh 29.68 in1005.1 mb 0.00 in0.0 mm 0.00 in/hr0.0 mm/hr 0.00 in0.0 mm
06:40 PM 43.3°F6.3°C 33.8°F1.0°C 69% 2.0 mph NNW3.2 kmh NNW 5.0 mph8.0 kmh 29.68 in1005.1 mb 0.00 in0.0 mm 0.00 in/hr0.0 mm/hr 0.00 in0.0 mm
06:45 PM 43.2°F6.2°C 33.7°F0.9°C 69% 2.0 mph NNW3.2 kmh NNW 5.0 mph8.0 kmh 29.68 in1005.1 mb 0.00 in0.0 mm 0.00 in/hr0.0 mm/hr 0.00 in0.0 mm
06:50 PM 43.1°F6.2°C 33.6°F0.9°C 69% 1.0 mph NNW1.6 kmh NNW 4.0 mph6.4 kmh 29.68 in1005.1 mb 0.00 in0.0 mm 0.00 in/hr0.0 mm/hr 0.00 in0.0 mm
06:55 PM 43.0°F6.1°C 33.9°F1.1°C 70% 1.0 mph NNW1.6 kmh NNW 4.0 mph6.4 kmh 29.68 in1005.1 mb 0.00 in0.0 mm 0.00 in/hr0.0 mm/hr 0.00 in0.0 mm
07:00 PM 42.9°F6.1°C 33.8°F1.0°C 70% 1.0 mph NNW1.6 kmh NNW 5.0 mph8.0 kmh 29.68 in1005.1 mb 0.00 in0.0 mm 0.00 in/hr0.0 mm/hr 0.00 in0.0 mm
07:05 PM 42.7°F5.9°C 33.9°F1.1°C 71% 2.0 mph N3.2 kmh N 5.0 mph8.0 kmh 29.68 in1005.1 mb 0.00 in0.0 mm 0.00 in/hr0.0 mm/hr 0.00 in0.0 mm
07:10 PM 42.5°F5.8°C 33.8°F1.0°C 71% 1.0 mph NNW1.6 kmh NNW 5.0 mph8.0 kmh 29.68 in1005.1 mb 0.00 in0.0 mm 0.00 in/hr0.0 mm/hr 0.00 in0.0 mm
07:15 PM 42.4°F5.8°C 33.7°F0.9°C 71% 1.0 mph NW1.6 kmh NW 4.0 mph6.4 kmh 29.68 in1005.1 mb 0.00 in0.0 mm 0.00 in/hr0.0 mm/hr 0.00 in0.0 mm
07:20 PM 42.2°F5.7°C 33.5°F0.8°C 71% 1.0 mph NNW1.6 kmh NNW 5.0 mph8.0 kmh 29.68 in1005.1 mb 0.00 in0.0 mm 0.00 in/hr0.0 mm/hr 0.00 in0.0 mm
07:25 PM 42.0°F5.6°C 33.3°F0.7°C 71% 1.0 mph NNW1.6 kmh NNW 5.0 mph8.0 kmh 29.68 in1005.1 mb 0.00 in0.0 mm 0.00 in/hr0.0 mm/hr 0.00 in0.0 mm
07:30 PM 41.8°F5.4°C 33.4°F0.8°C 72% 1.0 mph NNW1.6 kmh NNW 4.0 mph6.4 kmh 29.68 in1005.1 mb 0.00 in0.0 mm 0.00 in/hr0.0 mm/hr 0.00 in0.0 mm
07:35 PM 41.6°F5.3°C 33.6°F0.9°C 73% 1.0 mph NNW1.6 kmh NNW 3.0 mph4.8 kmh 29.68 in1005.1 mb 0.00 in0.0 mm 0.00 in/hr0.0 mm/hr 0.00 in0.0 mm
07:40 PM 41.3°F5.2°C 33.0°F0.6°C 72% 1.0 mph NNW1.6 kmh NNW 3.0 mph4.8 kmh 29.68 in1005.1 mb 0.00 in0.0 mm 0.00 in/hr0.0 mm/hr 0.00 in0.0 mm
07:45 PM 41.1°F5.1°C 32.8°F0.4°C 72% 1.0 mph N1.6 kmh N 4.0 mph6.4 kmh 29.68 in1005.1 mb 0.00 in0.0 mm 0.00 in/hr0.0 mm/hr 0.00 in0.0 mm
07:50 PM 40.9°F4.9°C 32.9°F0.5°C 73% 1.0 mph N1.6 kmh N 4.0 mph6.4 kmh 29.67 in1004.7 mb 0.00 in0.0 mm 0.00 in/hr0.0 mm/hr 0.00 in0.0 mm
07:55 PM 40.6°F4.8°C 32.6°F0.3°C 73% 1.0 mph N1.6 kmh N 3.0 mph4.8 kmh 29.67 in1004.7 mb 0.00 in0.0 mm 0.00 in/hr0.0 mm/hr 0.00 in0.0 mm
08:00 PM 40.3°F4.6°C 32.7°F0.4°C 74% 1.0 mph N1.6 kmh N 4.0 mph6.4 kmh 29.67 in1004.7 mb 0.00 in0.0 mm 0.00 in/hr0.0 mm/hr 0.00 in0.0 mm
08:05 PM 40.1°F4.5°C 32.5°F0.3°C 74% 1.0 mph N1.6 kmh N 4.0 mph6.4 kmh 29.67 in1004.7 mb 0.00 in0.0 mm 0.00 in/hr0.0 mm/hr 0.00 in0.0 mm
08:10 PM 39.8°F4.3°C 32.2°F0.1°C 74% 1.0 mph N1.6 kmh N 3.0 mph4.8 kmh 29.67 in1004.7 mb 0.00 in0.0 mm 0.00 in/hr0.0 mm/hr 0.00 in0.0 mm
08:15 PM 39.5°F4.2°C 32.2°F0.1°C 75% 1.0 mph N1.6 kmh N 3.0 mph4.8 kmh 29.67 in1004.7 mb 0.00 in0.0 mm 0.00 in/hr0.0 mm/hr 0.00 in0.0 mm
08:20 PM 39.2°F4.0°C 32.3°F0.2°C 76% 1.0 mph N1.6 kmh N 3.0 mph4.8 kmh 29.67 in1004.7 mb 0.00 in0.0 mm 0.00 in/hr0.0 mm/hr 0.00 in0.0 mm
08:25 PM 38.9°F3.8°C 32.0°F0.0°C 76% 1.0 mph N1.6 kmh N 2.0 mph3.2 kmh 29.67 in1004.7 mb 0.00 in0.0 mm 0.00 in/hr0.0 mm/hr 0.00 in0.0 mm
08:30 PM 38.7°F3.7°C 31.8°F-0.1°C 76% 1.0 mph N1.6 kmh N 3.0 mph4.8 kmh 29.66 in1004.4 mb 0.00 in0.0 mm 0.00 in/hr0.0 mm/hr 0.00 in0.0 mm
08:35 PM 38.4°F3.6°C 31.5°F-0.3°C 76% 1.0 mph N1.6 kmh N 3.0 mph4.8 kmh 29.67 in1004.7 mb 0.00 in0.0 mm 0.00 in/hr0.0 mm/hr 0.00 in0.0 mm
08:40 PM 38.0°F3.3°C 31.4°F-0.3°C 77% 1.0 mph N1.6 kmh N 2.0 mph3.2 kmh 29.67 in1004.7 mb 0.00 in0.0 mm 0.00 in/hr0.0 mm/hr 0.00 in0.0 mm
08:45 PM 37.5°F3.1°C 30.9°F-0.6°C 77% 1.0 mph N1.6 kmh N 2.0 mph3.2 kmh 29.67 in1004.7 mb 0.00 in0.0 mm 0.00 in/hr0.0 mm/hr 0.00 in0.0 mm
08:50 PM 37.2°F2.9°C 31.0°F-0.6°C 78% 1.0 mph N1.6 kmh N 3.0 mph4.8 kmh 29.67 in1004.7 mb 0.00 in0.0 mm 0.00 in/hr0.0 mm/hr 0.00 in0.0 mm
08:55 PM 36.9°F2.7°C 30.7°F-0.7°C 78% 1.0 mph N1.6 kmh N 3.0 mph4.8 kmh 29.67 in1004.7 mb 0.00 in0.0 mm 0.00 in/hr0.0 mm/hr 0.00 in0.0 mm
09:00 PM 36.7°F2.6°C 30.8°F-0.7°C 79% 1.0 mph N1.6 kmh N 3.0 mph4.8 kmh 29.67 in1004.7 mb 0.00 in0.0 mm 0.00 in/hr0.0 mm/hr 0.00 in0.0 mm
09:05 PM 36.4°F2.4°C 30.2°F-1.0°C 78% 1.0 mph N1.6 kmh N 3.0 mph4.8 kmh 29.67 in1004.7 mb 0.00 in0.0 mm 0.00 in/hr0.0 mm/hr 0.00 in0.0 mm
09:10 PM 36.2°F2.3°C 30.0°F-1.1°C 78% 1.0 mph N1.6 kmh N 3.0 mph4.8 kmh 29.67 in1004.7 mb 0.00 in0.0 mm 0.00 in/hr0.0 mm/hr 0.00 in0.0 mm
09:15 PM 35.9°F2.2°C 30.0°F-1.1°C 79% 1.0 mph N1.6 kmh N 2.0 mph3.2 kmh 29.67 in1004.7 mb 0.00 in0.0 mm 0.00 in/hr0.0 mm/hr 0.00 in0.0 mm
09:20 PM 35.5°F1.9°C 29.9°F-1.2°C 80% 1.0 mph N1.6 kmh N 2.0 mph3.2 kmh 29.67 in1004.7 mb 0.00 in0.0 mm 0.00 in/hr0.0 mm/hr 0.00 in0.0 mm
09:25 PM 35.2°F1.8°C 30.0°F-1.1°C 81% 1.0 mph N1.6 kmh N 2.0 mph3.2 kmh 29.67 in1004.7 mb 0.00 in0.0 mm 0.00 in/hr0.0 mm/hr 0.00 in0.0 mm
09:30 PM 35.0°F1.7°C 30.1°F-1.1°C 82% 1.0 mph N1.6 kmh N 3.0 mph4.8 kmh 29.67 in1004.7 mb 0.00 in0.0 mm 0.00 in/hr0.0 mm/hr 0.00 in0.0 mm
09:35 PM 34.7°F1.5°C 29.8°F-1.2°C 82% 1.0 mph N1.6 kmh N 3.0 mph4.8 kmh 29.67 in1004.7 mb 0.00 in0.0 mm 0.00 in/hr0.0 mm/hr 0.00 in0.0 mm
09:40 PM 34.4°F1.3°C 29.5°F-1.4°C 82% 1.0 mph N1.6 kmh N 3.0 mph4.8 kmh 29.67 in1004.7 mb 0.00 in0.0 mm 0.00 in/hr0.0 mm/hr 0.00 in0.0 mm
09:45 PM 34.2°F1.2°C 29.3°F-1.5°C 82% 1.0 mph N1.6 kmh N 3.0 mph4.8 kmh 29.67 in1004.7 mb 0.00 in0.0 mm 0.00 in/hr0.0 mm/hr 0.00 in0.0 mm
09:50 PM 33.9°F1.1°C 29.3°F-1.5°C 83% 1.0 mph N1.6 kmh N 2.0 mph3.2 kmh 29.67 in1004.7 mb 0.00 in0.0 mm 0.00 in/hr0.0 mm/hr 0.00 in0.0 mm
09:55 PM 33.7°F0.9°C 29.4°F-1.4°C 84% Calm Calm 2.0 mph3.2 kmh 29.67 in1004.7 mb 0.00 in0.0 mm 0.00 in/hr0.0 mm/hr 0.00 in0.0 mm
10:00 PM 33.4°F0.8°C 29.1°F-1.6°C 84% 1.0 mph N1.6 kmh N 3.0 mph4.8 kmh 29.67 in1004.7 mb 0.00 in0.0 mm 0.00 in/hr0.0 mm/hr 0.00 in0.0 mm
10:05 PM 33.2°F0.7°C 29.2°F-1.6°C 85% 1.0 mph N1.6 kmh N 3.0 mph4.8 kmh 29.67 in1004.7 mb 0.00 in0.0 mm 0.00 in/hr0.0 mm/hr 0.00 in0.0 mm
10:10 PM 32.9°F0.5°C 28.9°F-1.7°C 85% Calm Calm 3.0 mph4.8 kmh 29.67 in1004.7 mb 0.00 in0.0 mm 0.00 in/hr0.0 mm/hr 0.00 in0.0 mm
10:15 PM 32.7°F0.4°C 28.7°F-1.8°C 85% 1.0 mph N1.6 kmh N 2.0 mph3.2 kmh 29.67 in1004.7 mb 0.00 in0.0 mm 0.00 in/hr0.0 mm/hr 0.00 in0.0 mm
10:20 PM 32.5°F0.3°C 28.5°F-1.9°C 85% 1.0 mph N1.6 kmh N 2.0 mph3.2 kmh 29.67 in1004.7 mb 0.00 in0.0 mm 0.00 in/hr0.0 mm/hr 0.00 in0.0 mm
10:25 PM 32.3°F0.2°C 28.3°F-2.1°C 85% 1.0 mph N1.6 kmh N 2.0 mph3.2 kmh 29.67 in1004.7 mb 0.00 in0.0 mm 0.00 in/hr0.0 mm/hr 0.00 in0.0 mm
10:30 PM 32.1°F0.1°C 28.4°F-2.0°C 86% Calm Calm 2.0 mph3.2 kmh 29.67 in1004.7 mb 0.00 in0.0 mm 0.00 in/hr0.0 mm/hr 0.00 in0.0 mm
10:35 PM 32.0°F0.0°C 28.3°F-2.1°C 86% Calm Calm 2.0 mph3.2 kmh 29.67 in1004.7 mb 0.00 in0.0 mm 0.00 in/hr0.0 mm/hr 0.00 in0.0 mm
10:40 PM 31.8°F-0.1°C 28.1°F-2.2°C 86% 1.0 mph N1.6 kmh N 2.0 mph3.2 kmh 29.66 in1004.4 mb 0.00 in0.0 mm 0.00 in/hr0.0 mm/hr 0.00 in0.0 mm
10:45 PM 31.6°F-0.2°C 27.9°F-2.3°C 86% 1.0 mph N1.6 kmh N 2.0 mph3.2 kmh 29.66 in1004.4 mb 0.00 in0.0 mm 0.00 in/hr0.0 mm/hr 0.00 in0.0 mm
10:50 PM 31.4°F-0.3°C 27.7°F-2.4°C 86% 1.0 mph N1.6 kmh N 2.0 mph3.2 kmh 29.66 in1004.4 mb 0.00 in0.0 mm 0.00 in/hr0.0 mm/hr 0.00 in0.0 mm
10:55 PM 31.3°F-0.4°C 27.6°F-2.4°C 86% 1.0 mph N1.6 kmh N 2.0 mph3.2 kmh 29.67 in1004.7 mb 0.00 in0.0 mm 0.00 in/hr0.0 mm/hr 0.00 in0.0 mm
11:00 PM 31.1°F-0.5°C 27.4°F-2.6°C 86% Calm Calm 2.0 mph3.2 kmh 29.67 in1004.7 mb 0.00 in0.0 mm 0.00 in/hr0.0 mm/hr 0.00 in0.0 mm
11:05 PM 30.9°F-0.6°C 27.5°F-2.5°C 87% 1.0 mph N1.6 kmh N 2.0 mph3.2 kmh 29.67 in1004.7 mb 0.00 in0.0 mm 0.00 in/hr0.0 mm/hr 0.00 in0.0 mm
11:10 PM 30.7°F-0.7°C 27.3°F-2.6°C 87% 1.0 mph N1.6 kmh N 3.0 mph4.8 kmh 29.67 in1004.7 mb 0.00 in0.0 mm 0.00 in/hr0.0 mm/hr 0.00 in0.0 mm
11:15 PM 30.5°F-0.8°C 27.1°F-2.7°C 87% 1.0 mph N1.6 kmh N 3.0 mph4.8 kmh 29.66 in1004.4 mb 0.00 in0.0 mm 0.00 in/hr0.0 mm/hr 0.00 in0.0 mm
11:20 PM 30.3°F-0.9°C 26.9°F-2.8°C 87% 1.0 mph N1.6 kmh N 3.0 mph4.8 kmh 29.67 in1004.7 mb 0.00 in0.0 mm 0.00 in/hr0.0 mm/hr 0.00 in0.0 mm
11:25 PM 30.2°F-1.0°C 27.1°F-2.7°C 88% Calm Calm 3.0 mph4.8 kmh 29.67 in1004.7 mb 0.00 in0.0 mm 0.00 in/hr0.0 mm/hr 0.00 in0.0 mm
11:30 PM 30.0°F-1.1°C 26.9°F-2.8°C 88% Calm Calm 2.0 mph3.2 kmh 29.67 in1004.7 mb 0.00 in0.0 mm 0.00 in/hr0.0 mm/hr 0.00 in0.0 mm
11:35 PM 29.9°F-1.2°C 26.8°F-2.9°C 88% Calm Calm 1.0 mph1.6 kmh 29.67 in1004.7 mb 0.00 in0.0 mm 0.00 in/hr0.0 mm/hr 0.00 in0.0 mm
11:40 PM 29.8°F-1.2°C 26.7°F-2.9°C 88% Calm Calm -- 29.67 in1004.7 mb 0.00 in0.0 mm 0.00 in/hr0.0 mm/hr 0.00 in0.0 mm
11:45 PM 29.6°F-1.3°C 26.5°F-3.1°C 88% Calm Calm 1.0 mph1.6 kmh 29.67 in1004.7 mb 0.00 in0.0 mm 0.00 in/hr0.0 mm/hr 0.00 in0.0 mm
11:50 PM 29.4°F-1.4°C 26.3°F-3.2°C 88% Calm Calm 2.0 mph3.2 kmh 29.67 in1004.7 mb 0.00 in0.0 mm 0.00 in/hr0.0 mm/hr 0.00 in0.0 mm
11:55 PM 29.3°F-1.5°C 26.2°F-3.2°C 88% 1.0 mph NNE1.6 kmh NNE 2.0 mph3.2 kmh 29.68 in1005.1 mb 0.00 in0.0 mm 0.00 in/hr0.0 mm/hr 0.00 in0.0 mm